Time;durP1;ratioP1;P1;durP2;ratioP2;P2;SDS_P1;SDS_P2;PMS_P1;PMS_P2;Temp;Humidity;BMP_temperature;BMP_pressure;BME280_temperature;BME280_humidity;BME280_pressure;Samples;Min_cycle;Max_cycle;Signal;HPM_P1;HPM_P2
2022/02/20 00:01:15;;;;;;;2.93;0.50;;;;;;;;;;5017387;28;20453;-90
2022/02/20 00:03:43;;;;;;;0.60;0.50;;;;;;;;;;5017735;28;20463;-91
2022/02/20 00:06:11;;;;;;;3.87;0.83;;;;;;;;;;5015136;28;20459;-89
2022/02/20 00:08:38;;;;;;;2.67;1.47;;;;;;;;;;5015249;28;20441;-90
2022/02/20 00:11:06;;;;;;;2.30;1.63;;;;;;;;;;5016998;28;20963;-91
2022/02/20 00:13:33;;;;;;;3.17;1.00;;;;;;;;;;5015322;28;20459;-89
2022/02/20 00:16:00;;;;;;;1.47;0.80;;;;;;;;;;5016811;28;20464;-91
2022/02/20 00:18:27;;;;;;;1.73;0.77;;;;;;;;;;5017535;28;20457;-89
2022/02/20 00:20:54;;;;;;;1.63;0.80;;;;;;;;;;5013422;28;20496;-89
2022/02/20 00:23:22;;;;;;;2.00;0.97;;;4.40;99.90;;;;;;5015213;28;20458;-90
2022/02/20 00:25:49;;;;;;;3.73;0.73;;;;;;;;;;5015192;28;20491;-90
2022/02/20 00:28:17;;;;;;;3.30;0.77;;;;;;;;;;5015541;28;20452;-90
2022/02/20 00:30:44;;;;;;;1.80;1.13;;;;;;;;;;5009084;28;20467;-89
2022/02/20 00:33:17;;;;;;;4.07;1.10;;;;;;;;;;4994772;28;20464;-91
2022/02/20 00:35:45;;;;;;;5.47;1.50;;;;;;;;;;4996004;28;20461;-92
2022/02/20 00:38:13;;;;;;;8.17;0.60;;;4.00;99.90;;;;;;4995475;28;20454;-93
2022/02/20 00:40:44;;;;;;;2.43;0.60;;;;;;;;;;4996668;28;20505;-91
2022/02/20 00:43:12;;;;;;;2.77;0.70;;;;;;;;;;4997435;28;20508;-90
2022/02/20 00:45:41;;;;;;;1.33;0.80;;;;;;;;;;4995743;28;20463;-90
2022/02/20 00:48:08;;;;;;;0.93;0.53;;;;;;;;;;4995321;28;20467;-90
2022/02/20 00:50:35;;;;;;;2.70;1.20;;;;;;;;;;4995379;28;20969;-90
2022/02/20 00:53:02;;;;;;;2.40;0.93;;;;;;;;;;4993891;28;20460;-91
2022/02/20 00:55:30;;;;;;;0.97;0.60;;;;;;;;;;4994642;28;20452;-91
2022/02/20 00:57:58;;;;;;;5.80;1.20;;;;;;;;;;4994462;28;20457;-88
2022/02/20 01:00:25;;;;;;;5.03;0.57;;;;;;;;;;4994314;28;20498;-89
2022/02/20 01:02:53;;;;;;;1.47;0.60;;;;;;;;;;4994673;28;20456;-90
2022/02/20 01:05:20;;;;;;;2.30;0.70;;;;;;;;;;4994594;28;20542;-89
2022/02/20 01:07:47;;;;;;;4.73;0.93;;;;;;;;;;4993779;28;20454;-91
2022/02/20 01:10:18;;;;;;;4.20;0.83;;;;;;;;;;4994948;28;20467;-90
2022/02/20 01:12:46;;;;;;;3.43;1.23;;;;;;;;;;4995817;28;20457;-91
2022/02/20 01:15:18;;;;;;;5.17;0.60;;;3.90;99.90;;;;;;4994833;28;20494;-89
2022/02/20 01:17:45;;;;;;;2.03;1.20;;;;;;;;;;4991668;28;20473;-90
2022/02/20 01:20:13;;;;;;;1.77;0.70;;;3.90;99.90;;;;;;4993342;28;20486;-91
2022/02/20 01:22:41;;;;;;;1.83;1.00;;;;;;;;;;4976373;28;20446;-90
2022/02/20 01:25:09;;;;;;;2.00;0.60;;;;;;;;;;4994257;28;20516;-90
2022/02/20 01:27:36;;;;;;;2.63;0.93;;;;;;;;;;4994587;28;20456;-90
2022/02/20 01:30:03;;;;;;;0.57;0.40;;;;;;;;;;4992335;28;20459;-91
2022/02/20 01:32:31;;;;;;;0.90;0.50;;;4.00;99.90;;;;;;4993569;28;20467;-91
2022/02/20 01:34:59;;;;;;;3.40;0.90;;;;;;;;;;4993714;28;20472;-91
2022/02/20 01:37:26;;;;;;;1.00;0.63;;;;;;;;;;4993433;28;20464;-92
2022/02/20 01:39:53;;;;;;;3.53;1.00;;;;;;;;;;4994241;28;20812;-91
2022/02/20 01:42:20;;;;;;;2.50;0.83;;;;;;;;;;4993321;28;20521;-92
2022/02/20 01:44:49;;;;;;;3.50;0.83;;;;;;;;;;4994082;28;20449;-92
2022/02/20 01:47:19;;;;;;;0.30;0.20;;;;;;;;;;4996143;28;20524;-90
2022/02/20 01:49:48;;;;;;;0.77;0.40;;;;;;;;;;5015253;28;20433;-90
2022/02/20 01:52:15;;;;;;;4.53;0.70;;;;;;;;;;5006231;28;20454;-90
2022/02/20 01:54:43;;;;;;;1.00;0.57;;;;;;;;;;4994594;28;20450;-90
2022/02/20 01:57:10;;;;;;;0.93;0.47;;;;;;;;;;4993787;28;20811;-91
2022/02/20 01:59:38;;;;;;;2.10;0.97;;;;;;;;;;4993446;28;20514;-90
2022/02/20 02:02:05;;;;;;;1.50;0.50;;;;;;;;;;4994178;28;20454;-90
2022/02/20 02:04:33;;;;;;;0.57;0.40;;;;;;;;;;4993605;28;20799;-91
2022/02/20 02:07:01;;;;;;;1.40;0.73;;;;;;;;;;4993101;28;20958;-91
2022/02/20 02:09:28;;;;;;;1.30;0.50;;;;;;;;;;4993405;28;20440;-89
2022/02/20 02:11:55;;;;;;;1.60;0.70;;;;;;;;;;4993951;28;20447;-92
2022/02/20 02:14:23;;;;;;;1.07;0.83;;;;;;;;;;4993717;28;20466;-92
2022/02/20 02:16:50;;;;;;;1.00;0.50;;;;;;;;;;4993555;28;20539;-90
2022/02/20 02:19:17;;;;;;;0.50;0.30;;;;;;;;;;4991639;28;20967;-90
2022/02/20 02:21:44;;;;;;;1.90;0.60;;;;;;;;;;4992213;28;20867;-90
2022/02/20 02:26:58;;;;;;;4.57;0.93;;;4.40;99.90;;;;;;5132753;27;21094;-93
2022/02/20 02:29:38;;;;;;;0.60;0.57;;;4.40;99.90;;;;;;5133045;28;20446;-93
2022/02/20 02:32:05;;;;;;;0.40;0.30;;;;;;;;;;5132325;28;21013;-92
2022/02/20 02:34:33;;;;;;;1.13;0.47;;;;;;;;;;5132665;28;20459;-93
2022/02/20 02:37:00;;;;;;;2.30;0.70;;;;;;;;;;5131913;28;20447;-92
2022/02/20 02:39:27;;;;;;;2.20;0.60;;;;;;;;;;5128682;28;20462;-93
2022/02/20 02:41:56;;;;;;;1.60;0.80;;;;;;;;;;5133345;28;20533;-93
2022/02/20 02:44:23;;;;;;;5.73;0.57;;;;;;;;;;5132243;28;20456;-92
2022/02/20 02:46:50;;;;;;;0.80;0.50;;;;;;;;;;5132604;28;20485;-93
2022/02/20 02:49:17;;;;;;;4.40;0.80;;;;;;;;;;5132721;28;20438;-93
2022/02/20 02:51:44;;;;;;;0.60;0.30;;;;;;;;;;5128664;28;20496;-92
2022/02/20 02:54:17;;;;;;;1.27;0.70;;;4.50;99.90;;;;;;5132074;28;20451;-92
2022/02/20 02:56:44;;;;;;;0.77;0.40;;;;;;;;;;5132047;28;20459;-93
2022/02/20 02:59:14;;;;;;;4.43;1.07;;;4.50;99.90;;;;;;5132240;28;20971;-93
2022/02/20 03:01:41;;;;;;;0.93;0.50;;;;;;;;;;5130902;28;20453;-93
2022/02/20 03:04:08;;;;;;;0.50;0.50;;;;;;;;;;5132483;28;20423;-93
2022/02/20 03:06:35;;;;;;;1.40;0.63;;;;;;;;;;5130894;28;21080;-93
2022/02/20 03:09:02;;;;;;;0.50;0.40;;;;;;;;;;5131078;28;20434;-92
2022/02/20 03:11:30;;;;;;;1.20;0.50;;;;;;;;;;5132513;28;20446;-93
2022/02/20 03:13:57;;;;;;;1.20;0.77;;;;;;;;;;5132721;28;20451;-94
2022/02/20 03:16:37;;;;;;;2.23;0.87;;;;;;;;;;5132304;28;20478;-94
2022/02/20 03:19:05;;;;;;;3.80;0.80;;;;;;;;;;5132516;27;20444;-95
2022/02/20 03:21:32;;;;;;;4.23;0.50;;;;;;;;;;5131751;27;20886;-92
2022/02/20 03:23:59;;;;;;;3.57;0.67;;;;;;;;;;5132750;27;20435;-94
2022/02/20 03:26:26;;;;;;;0.57;0.37;;;;;;;;;;5132073;28;20560;-93
2022/02/20 03:28:53;;;;;;;0.60;0.40;;;;;;;;;;5133397;27;20450;-94
2022/02/20 03:31:20;;;;;;;1.40;0.97;;;;;;;;;;5132490;27;20435;-94
2022/02/20 03:33:49;;;;;;;2.83;0.47;;;;;;;;;;5132914;27;20442;-93
2022/02/20 03:36:16;;;;;;;0.97;0.67;;;;;;;;;;5130899;27;20444;-93
2022/02/20 03:38:43;;;;;;;1.77;0.40;;;;;;;;;;5119369;28;20450;-92
2022/02/20 03:41:10;;;;;;;1.40;0.40;;;;;;;;;;5119154;27;20453;-93
2022/02/20 03:43:38;;;;;;;3.63;0.50;;;;;;;;;;5118083;28;20448;-91
2022/02/20 03:46:05;;;;;;;1.43;0.40;;;;;;;;;;5117752;28;20544;-93
2022/02/20 03:48:32;;;;;;;2.77;1.27;;;;;;;;;;5118589;28;20485;-92
2022/02/20 03:51:02;;;;;;;4.00;0.60;;;4.70;99.90;;;;;;5117597;28;20546;-94
2022/02/20 03:53:29;;;;;;;1.17;0.63;;;;;;;;;;5118514;28;20540;-90
2022/02/20 03:55:56;;;;;;;2.03;0.40;;;;;;;;;;5118174;28;20446;-92
2022/02/20 03:58:24;;;;;;;6.93;0.80;;;;;;;;;;5118228;27;20528;-92
2022/02/20 04:00:51;;;;;;;2.53;0.40;;;;;;;;;;5118164;27;20444;-93
2022/02/20 04:03:18;;;;;;;1.33;0.50;;;;;;;;;;5117558;28;20428;-92
2022/02/20 04:05:45;;;;;;;0.83;0.50;;;;;;;;;;5118055;28;20486;-93
2022/02/20 04:08:13;;;;;;;1.27;0.40;;;4.60;99.90;;;;;;5117513;27;20447;-93
2022/02/20 04:10:40;;;;;;;3.33;0.70;;;;;;;;;;5117564;28;20458;-94
2022/02/20 04:13:07;;;;;;;1.50;0.60;;;;;;;;;;5117240;28;20436;-94
2022/02/20 04:15:35;;;;;;;0.80;0.40;;;;;;;;;;5117685;27;20464;-93
2022/02/20 04:18:02;;;;;;;0.97;0.73;;;;;;;;;;5118017;28;20449;-94
2022/02/20 04:20:29;;;;;;;0.90;0.60;;;;;;;;;;5117441;28;20489;-93
2022/02/20 04:22:56;;;;;;;1.60;0.50;;;;;;;;;;5117204;28;20900;-94
2022/02/20 04:25:25;;;;;;;1.37;0.60;;;;;;;;;;5117135;27;20495;-93
2022/02/20 04:27:52;;;;;;;0.50;0.30;;;;;;;;;;5138936;28;20440;-93
2022/02/20 04:30:20;;;;;;;2.67;0.53;;;;;;;;;;5133472;28;20915;-95
2022/02/20 04:32:47;;;;;;;2.00;0.80;;;;;;;;;;5118018;28;20436;-93
2022/02/20 04:35:14;;;;;;;0.30;0.20;;;;;;;;;;5117573;28;20927;-93
2022/02/20 04:37:41;;;;;;;0.70;0.60;;;;;;;;;;5117429;28;20439;-94
2022/02/20 04:40:09;;;;;;;0.40;0.30;;;4.20;99.90;;;;;;5117294;28;20424;-94
2022/02/20 04:42:38;;;;;;;0.40;0.20;;;4.20;99.90;;;;;;5117237;28;20781;-94
2022/02/20 04:45:05;;;;;;;0.50;0.37;;;;;;;;;;5116903;28;20459;-94
2022/02/20 04:47:32;;;;;;;0.60;0.40;;;;;;;;;;5117039;28;20483;-93
2022/02/20 04:49:59;;;;;;;0.63;0.50;;;;;;;;;;5116343;28;20932;-94
2022/02/20 04:52:27;;;;;;;1.43;0.60;;;;;;;;;;5113279;28;20498;-93
2022/02/20 04:54:54;;;;;;;0.47;0.43;;;;;;;;;;5117515;28;20436;-93
2022/02/20 04:57:21;;;;;;;0.53;0.30;;;;;;;;;;5117397;27;20773;-92
2022/02/20 04:59:55;;;;;;;1.23;0.40;;;;;;;;;;5117038;28;20452;-94
2022/02/20 05:02:22;;;;;;;4.50;0.80;;;;;;;;;;5116621;28;20439;-92
2022/02/20 05:04:49;;;;;;;0.40;0.30;;;;;;;;;;5116264;28;20439;-94
2022/02/20 05:07:16;;;;;;;0.50;0.30;;;;;;;;;;5115211;28;20470;-94
2022/02/20 05:09:44;;;;;;;0.90;0.57;;;;;;;;;;5113649;28;20489;-93
2022/02/20 05:12:11;;;;;;;4.33;0.73;;;;;;;;;;5116879;28;20448;-93
2022/02/20 05:14:38;;;;;;;1.30;0.40;;;;;;;;;;5117823;27;20480;-93
2022/02/20 05:17:07;;;;;;;0.73;0.70;;;4.10;99.90;;;;;;5116322;28;20448;-94
2022/02/20 05:19:35;;;;;;;0.70;0.40;;;;;;;;;;5112723;28;20467;-93
2022/02/20 05:22:03;;;;;;;0.60;0.30;;;;;;;;;;5116768;27;20463;-93
2022/02/20 05:24:30;;;;;;;0.60;0.20;;;;;;;;;;5116655;28;20446;-94
2022/02/20 05:26:57;;;;;;;0.40;0.30;;;;;;;;;;5116445;28;20485;-94
2022/02/20 05:29:24;;;;;;;0.80;0.40;;;;;;;;;;5117499;27;20460;-94
2022/02/20 05:31:51;;;;;;;1.47;0.50;;;;;;;;;;5115933;28;20518;-95
2022/02/20 05:34:19;;;;;;;0.77;0.40;;;4.10;99.90;;;;;;5115927;28;20416;-94
2022/02/20 05:36:46;;;;;;;1.10;0.67;;;;;;;;;;5115519;28;20455;-93
2022/02/20 05:39:13;;;;;;;0.60;0.40;;;;;;;;;;5116963;27;20966;-94
2022/02/20 05:41:40;;;;;;;0.40;0.20;;;;;;;;;;5116324;28;20440;-93
2022/02/20 05:44:08;;;;;;;0.97;0.30;;;;;;;;;;5115717;28;20539;-93
2022/02/20 05:46:35;;;;;;;2.93;0.50;;;;;;;;;;5115203;28;20483;-93
2022/02/20 05:49:04;;;;;;;2.07;0.50;;;;;;;;;;5115782;28;20448;-93
2022/02/20 05:51:32;;;;;;;0.40;0.40;;;;;;;;;;5114690;28;20435;-94
2022/02/20 05:54:00;;;;;;;0.50;0.40;;;;;;;;;;5116126;28;20455;-93
2022/02/20 05:56:33;;;;;;;0.97;0.33;;;4.10;99.90;;;;;;5116620;27;20458;-94
2022/02/20 05:59:00;;;;;;;5.60;0.63;;;;;;;;;;5115500;28;20473;-94
2022/02/20 06:01:32;;;;;;;1.83;0.50;;;;;;;;;;5115083;28;20444;-94
2022/02/20 06:03:59;;;;;;;0.80;0.30;;;;;;;;;;5094966;28;20440;-92
2022/02/20 06:06:32;;;;;;;1.37;0.43;;;;;;;;;;5099620;28;20467;-94
2022/02/20 06:09:00;;;;;;;0.50;0.40;;;4.30;99.90;;;;;;5116141;28;20439;-93
2022/02/20 06:11:30;;;;;;;1.90;1.07;;;;;;;;;;5115908;28;20440;-93
2022/02/20 06:13:57;;;;;;;0.40;0.30;;;;;;;;;;5115655;28;20970;-95
2022/02/20 06:16:24;;;;;;;0.73;0.40;;;;;;;;;;5116021;28;20453;-93
2022/02/20 06:18:52;;;;;;;1.27;0.60;;;;;;;;;;5117123;28;20466;-95
2022/02/20 06:21:19;;;;;;;0.60;0.40;;;;;;;;;;5115482;28;20796;-94
2022/02/20 06:23:46;;;;;;;0.57;0.37;;;;;;;;;;5115372;28;20435;-95
2022/02/20 06:26:14;;;;;;;1.90;0.60;;;4.60;99.90;;;;;;5115979;28;20495;-94
2022/02/20 06:28:41;;;;;;;3.17;1.23;;;;;;;;;;5115687;28;20455;-95
2022/02/20 06:31:18;;;;;;;0.37;0.27;;;4.40;99.90;;;;;;5114900;28;20443;-90
2022/02/20 06:33:47;;;;;;;0.70;0.50;;;;;;;;;;5115709;28;20520;-93
2022/02/20 06:36:18;;;;;;;0.60;0.30;;;;;;;;;;5114642;28;20464;-95
2022/02/20 06:38:45;;;;;;;2.10;1.17;;;;;;;;;;5116558;28;20990;-93
2022/02/20 06:41:12;;;;;;;2.70;0.60;;;;;;;;;;5115954;28;20436;-94
2022/02/20 06:43:41;;;;;;;1.33;0.37;;;4.50;99.90;;;;;;5111590;28;20460;-95
2022/02/20 06:46:08;;;;;;;0.40;0.30;;;;;;;;;;5117106;28;20490;-94
2022/02/20 06:48:43;;;;;;;0.40;0.30;;;;;;;;;;5116517;28;20462;-94
2022/02/20 06:51:10;;;;;;;0.60;0.40;;;;;;;;;;5115496;28;20500;-95
2022/02/20 06:53:37;;;;;;;1.00;0.40;;;;;;;;;;5115222;28;20448;-93
2022/02/20 06:56:05;;;;;;;0.60;0.33;;;;;;;;;;5115846;28;20959;-94
2022/02/20 06:58:32;;;;;;;0.40;0.20;;;;;;;;;;5114912;28;20455;-94
2022/02/20 07:01:00;;;;;;;0.40;0.30;;;4.70;99.90;;;;;;5115810;28;20443;-93
2022/02/20 07:03:27;;;;;;;0.40;0.20;;;;;;;;;;5117347;28;20863;-93
2022/02/20 07:05:54;;;;;;;0.63;0.30;;;;;;;;;;5138509;28;20447;-93
2022/02/20 07:08:23;;;;;;;0.40;0.20;;;;;;;;;;5124903;28;20938;-94
2022/02/20 07:10:50;;;;;;;0.50;0.40;;;;;;;;;;5116174;28;20459;-94
2022/02/20 07:13:17;;;;;;;1.30;0.50;;;;;;;;;;5118101;28;20447;-94
2022/02/20 07:15:44;;;;;;;0.73;0.50;;;;;;;;;;5119000;28;20486;-93
2022/02/20 07:18:13;;;;;;;0.70;0.50;;;;;;;;;;5117987;28;20451;-91
2022/02/20 07:20:41;;;;;;;0.70;0.30;;;;;;;;;;5118153;28;20459;-94
2022/02/20 07:23:09;;;;;;;0.40;0.40;;;;;;;;;;5117313;28;20809;-92
2022/02/20 07:25:36;;;;;;;0.40;0.30;;;;;;;;;;5117796;28;20475;-93
2022/02/20 07:28:03;;;;;;;0.50;0.40;;;;;;;;;;5118310;28;20475;-92
2022/02/20 07:30:31;;;;;;;0.30;0.20;;;;;;;;;;5118123;28;20436;-93
2022/02/20 07:33:00;;;;;;;0.70;0.37;;;4.80;99.90;;;;;;5118209;28;20436;-92
2022/02/20 07:35:28;;;;;;;0.40;0.30;;;4.90;99.90;;;;;;5118212;28;20479;-93
2022/02/20 07:37:56;;;;;;;0.70;0.40;;;;;;;;;;5116774;28;20455;-92
2022/02/20 07:40:23;;;;;;;0.60;0.30;;;;;;;;;;5117357;28;20452;-92
2022/02/20 07:42:50;;;;;;;0.90;0.30;;;;;;;;;;5111886;28;20444;-91
2022/02/20 07:45:23;;;;;;;0.80;0.77;;;;;;;;;;5101980;28;20471;-90
2022/02/20 07:47:52;;;;;;;1.10;0.33;;;5.00;99.90;;;;;;5102313;28;20479;-91
2022/02/20 07:50:20;;;;;;;1.43;0.60;;;;;;;;;;5117289;28;20440;-91
2022/02/20 07:52:48;;;;;;;0.40;0.20;;;5.00;99.90;;;;;;5117125;28;20436;-92
2022/02/20 07:55:16;;;;;;;3.60;1.07;;;;;;;;;;5117451;28;20440;-93
2022/02/20 07:57:43;;;;;;;4.87;0.90;;;;;;;;;;5117341;28;20448;-94
2022/02/20 08:00:11;;;;;;;1.20;0.50;;;5.50;99.90;;;;;;5117524;27;20940;-92
2022/02/20 08:02:42;;;;;;;0.93;0.70;;;;;;;;;;5118122;28;20947;-92
2022/02/20 08:05:10;;;;;;;0.90;0.47;;;5.50;99.90;;;;;;5117245;28;20458;-92
2022/02/20 08:07:37;;;;;;;0.50;0.40;;;;;;;;;;5114129;27;20480;-91
2022/02/20 08:10:07;;;;;;;0.50;0.40;;;5.60;99.90;;;;;;5117968;27;20471;-90
2022/02/20 08:12:34;;;;;;;0.40;0.30;;;;;;;;;;5118125;27;20448;-92
2022/02/20 08:15:07;;;;;;;1.00;0.70;;;5.60;99.90;;;;;;5099333;28;20838;-91
2022/02/20 08:17:34;;;;;;;0.50;0.33;;;;;;;;;;5114215;28;20447;-91
2022/02/20 08:20:01;;;;;;;1.17;0.40;;;;;;;;;;5117760;27;20820;-93
2022/02/20 08:22:28;;;;;;;0.40;0.40;;;;;;;;;;5116822;27;20447;-93
2022/02/20 08:24:55;;;;;;;2.10;0.47;;;;;;;;;;5116646;28;20482;-93
2022/02/20 08:27:23;;;;;;;0.40;0.20;;;5.80;99.90;;;;;;5116692;28;20835;-90
2022/02/20 08:29:50;;;;;;;3.63;0.63;;;;;;;;;;5118528;28;20440;-92
2022/02/20 08:32:17;;;;;;;3.60;0.70;;;;;;;;;;5120984;28;20433;-94
2022/02/20 08:34:45;;;;;;;1.13;0.70;;;;;;;;;;5129868;28;20444;-94
2022/02/20 08:37:12;;;;;;;2.20;0.37;;;;;;;;;;5119913;28;20849;-95
2022/02/20 08:39:39;;;;;;;1.30;0.47;;;;;;;;;;5117017;28;20805;-92
2022/02/20 08:42:08;;;;;;;2.10;0.50;;;;;;;;;;5114662;28;20424;-94
2022/02/20 08:44:37;;;;;;;1.50;0.73;;;;;;;;;;5116888;27;20919;-94
2022/02/20 08:47:05;;;;;;;1.60;0.47;;;10.40;99.90;;;;;;5117020;28;20487;-93
2022/02/20 08:49:32;;;;;;;0.57;0.30;;;;;;;;;;5115011;28;20437;-92
2022/02/20 08:52:00;;;;;;;2.90;0.43;;;;;;;;;;5116057;28;20938;-92
2022/02/20 08:54:27;;;;;;;0.90;0.40;;;;;;;;;;5117157;28;20807;-91
2022/02/20 08:56:54;;;;;;;1.27;0.30;;;;;;;;;;5116525;28;20452;-93
2022/02/20 08:59:22;;;;;;;1.10;0.40;;;;;;;;;;5097687;22;20489;-93
2022/02/20 09:01:51;;;;;;;4.57;2.13;;;6.80;99.90;;;;;;5070625;28;20434;-92
2022/02/20 09:04:19;;;;;;;6.80;3.97;;;;;;;;;;5187306;22;20473;-93
2022/02/20 09:06:46;;;;;;;11.77;4.90;;;;;;;;;;5094506;22;20520;-93
2022/02/20 09:09:13;;;;;;;4.07;2.13;;;;;;;;;;5087438;28;20450;-94
2022/02/20 09:11:41;;;;;;;5.10;3.00;;;;;;;;;;5081368;28;20434;-92
2022/02/20 09:14:08;;;;;;;0.70;0.47;;;;;;;;;;5081918;28;20507;-93
2022/02/20 09:16:35;;;;;;;1.03;0.53;;;;;;;;;;5086438;28;20452;-92
2022/02/20 09:19:06;;;;;;;0.43;0.43;;;;;;;;;;5083001;28;20453;-93
2022/02/20 09:21:35;;;;;;;1.10;0.70;;;;;;;;;;5083459;28;20438;-91
2022/02/20 09:24:02;;;;;;;1.13;0.50;;;;;;;;;;5078757;28;20450;-92
2022/02/20 09:26:29;;;;;;;1.17;0.50;;;;;;;;;;5077254;28;20971;-93
2022/02/20 09:28:56;;;;;;;0.80;0.50;;;;;;;;;;5076687;28;20515;-89
2022/02/20 09:31:23;;;;;;;2.30;0.80;;;;;;;;;;5073726;28;20483;-89
2022/02/20 09:33:52;;;;;;;1.40;0.90;;;6.90;99.90;;;;;;5070845;28;20450;-92
2022/02/20 09:36:21;;;;;;;0.40;0.40;;;7.00;99.90;;;;;;5072974;28;20454;-92
2022/02/20 09:38:48;;;;;;;0.40;0.20;;;;;;;;;;5069991;28;20461;-91
2022/02/20 09:41:15;;;;;;;0.60;0.50;;;;;;;;;;5069938;28;20496;-92
2022/02/20 09:43:42;;;;;;;0.63;0.40;;;;;;;;;;5074727;28;20457;-93
2022/02/20 09:46:09;;;;;;;1.67;0.40;;;;;;;;;;5074303;28;20430;-91
2022/02/20 09:48:38;;;;;;;1.13;0.50;;;;;;;;;;5074020;28;20578;-90
2022/02/20 09:51:10;;;;;;;0.47;0.30;;;7.10;99.90;;;;;;5072387;28;20508;-91
2022/02/20 09:53:38;;;;;;;0.70;0.40;;;7.20;99.90;;;;;;5072274;28;20469;-94
2022/02/20 09:56:06;;;;;;;0.40;0.30;;;7.20;99.90;;;;;;5073719;28;20480;-90
2022/02/20 09:58:33;;;;;;;1.07;0.50;;;;;;;;;;5073844;28;20442;-91
2022/02/20 10:01:05;;;;;;;0.93;0.50;;;7.30;99.90;;;;;;5069781;28;20962;-89
2022/02/20 10:03:35;;;;;;;0.73;0.60;;;7.40;99.90;;;;;;5056638;28;20446;-90
2022/02/20 10:06:04;;;;;;;0.60;0.30;;;7.30;99.90;;;;;;5071747;28;20477;-91
2022/02/20 10:08:40;;;;;;;0.90;0.63;;;7.30;99.90;;;;;;5071695;28;20996;-90
2022/02/20 10:11:14;;;;;;;1.03;0.93;;;7.40;99.90;;;;;;5072004;28;20442;-91
2022/02/20 10:13:41;;;;;;;0.40;0.30;;;;;;;;;;5060081;28;20461;-89
2022/02/20 10:16:21;;;;;;;2.10;0.80;;;7.50;99.90;;;;;;5063610;28;20830;-89
2022/02/20 10:18:49;;;;;;;0.50;0.30;;;7.60;99.90;;;;;;5073692;28;20454;-90
2022/02/20 10:21:20;;;;;;;1.60;1.03;;;7.80;99.90;;;;;;5072396;28;20449;-90
2022/02/20 10:23:49;;;;;;;2.30;0.67;;;7.70;99.90;;;;;;5073325;28;20448;-93
2022/02/20 10:26:19;;;;;;;1.83;0.80;;;7.70;99.90;;;;;;5068863;28;20437;-91
2022/02/20 10:29:07;;;;;;;1.40;1.30;;;7.80;99.90;;;;;;5070102;28;21007;-89
2022/02/20 10:31:42;;;;;;;0.70;0.70;;;7.80;99.90;;;;;;5064951;28;20457;-90
2022/02/20 10:34:10;;;;;;;1.37;0.53;;;7.70;99.90;;;;;;5073607;28;20960;-89
2022/02/20 10:36:53;;;;;;;2.57;1.17;;;7.80;99.90;;;;;;5074282;28;20445;-94
2022/02/20 10:39:24;;;;;;;1.87;1.13;;;7.80;99.90;;;;;;5076031;28;20464;-93
2022/02/20 10:41:51;;;;;;;2.53;1.20;;;8.00;99.90;;;;;;5078640;28;20430;-94
2022/02/20 10:44:18;;;;;;;1.20;0.90;;;;;;;;;;5079141;28;20430;-93
2022/02/20 10:46:45;;;;;;;0.90;0.63;;;;;;;;;;5077382;28;20430;-94
2022/02/20 10:49:26;;;;;;;0.60;0.30;;;7.90;99.90;;;;;;5086726;28;20484;-92
2022/02/20 10:51:56;;;;;;;2.10;1.37;;;7.90;99.90;;;;;;5077521;28;20921;-93
2022/02/20 10:54:24;;;;;;;1.43;0.53;;;8.10;99.90;;;;;;5090781;28;20553;-92
2022/02/20 10:56:51;;;;;;;0.50;0.40;;;;;;;;;;5078792;28;20446;-93
2022/02/20 10:59:21;;;;;;;1.10;0.50;;;;;;;;;;5078690;28;20445;-94
2022/02/20 11:01:48;;;;;;;9.67;4.40;;;;;;;;;;5074180;28;20465;-94
2022/02/20 11:04:16;;;;;;;3.30;2.07;;;;;;;;;;5078385;28;20483;-89
2022/02/20 11:06:44;;;;;;;2.20;1.10;;;;;;;;;;5076347;28;20488;-88
2022/02/20 11:09:13;;;;;;;2.63;2.00;;;7.90;99.90;;;;;;5073608;28;20500;-90
2022/02/20 11:11:49;;;;;;;1.60;0.93;;;8.10;99.90;;;;;;5073603;28;20468;-89
2022/02/20 11:14:17;;;;;;;0.40;0.20;;;8.10;99.90;;;;;;5074008;28;20779;-89
2022/02/20 11:16:46;;;;;;;1.40;0.97;;;8.00;99.90;;;;;;5076361;28;20457;-89
2022/02/20 11:19:15;;;;;;;1.23;0.73;;;8.20;99.90;;;;;;5073688;28;20458;-90
2022/02/20 11:21:45;;;;;;;1.37;0.30;;;8.30;99.90;;;;;;5068881;28;20441;-90
2022/02/20 11:24:13;;;;;;;1.40;1.20;;;;;;;;;;5077041;28;20442;-89
2022/02/20 11:26:43;;;;;;;1.50;0.83;;;8.30;99.90;;;;;;5076704;28;20968;-92
2022/02/20 11:29:10;;;;;;;7.07;2.60;;;;;;;;;;5076575;28;20990;-90
2022/02/20 11:31:39;;;;;;;1.23;0.40;;;8.20;99.90;;;;;;5076596;28;20445;-89
2022/02/20 11:34:06;;;;;;;4.13;2.70;;;;;;;;;;5075931;28;20449;-88
2022/02/20 11:36:33;;;;;;;0.60;0.43;;;;;;;;;;5074865;28;20968;-89
2022/02/20 11:39:06;;;;;;;1.80;0.90;;;8.10;99.90;;;;;;5078976;28;20442;-91
2022/02/20 11:41:33;;;;;;;3.03;0.70;;;;;;;;;;5078247;28;20434;-94
2022/02/20 11:44:15;;;;;;;2.63;0.90;;;8.10;99.90;;;;;;5079062;28;20948;-89
2022/02/20 11:46:47;;;;;;;2.30;0.67;;;;;;;;;;5076953;28;20437;-95
2022/02/20 11:49:29;;;;;;;0.93;0.40;;;8.20;99.90;;;;;;5082311;28;20988;-92
2022/02/20 11:52:11;;;;;;;0.50;0.30;;;8.30;99.90;;;;;;5079305;28;20480;-93
2022/02/20 11:54:41;;;;;;;1.03;0.30;;;8.20;99.90;;;;;;5077535;28;20828;-93
2022/02/20 11:57:25;;;;;;;0.30;0.20;;;8.10;99.90;;;;;;5059801;28;20423;-95
2022/02/20 12:00:17;;;;;;;2.50;0.33;;;8.20;99.90;;;;;;5056419;28;20496;-90
2022/02/20 12:03:05;;;;;;;0.40;0.30;;;8.20;99.90;;;;;;4984923;28;20454;-94
2022/02/20 12:05:32;;;;;;;0.40;0.30;;;8.20;99.90;;;;;;4983549;28;20482;-93
2022/02/20 12:08:00;;;;;;;0.90;0.50;;;;;;;;;;4976927;28;20497;-93
2022/02/20 12:10:34;;;;;;;0.77;0.63;;;8.30;99.90;;;;;;4985345;28;20477;-92
2022/02/20 12:13:31;;;;;;;2.30;0.70;;;8.20;99.90;;;;;;4982931;28;20461;-93
2022/02/20 12:16:29;;;;;;;1.27;0.30;;;8.30;99.90;;;;;;4979596;28;20481;-94
2022/02/20 12:19:07;;;;;;;11.03;3.63;;;8.20;99.90;;;;;;4980029;28;20930;-94
2022/02/20 12:21:34;;;;;;;2.73;2.40;;;;;;;;;;4976424;28;20442;-93
2022/02/20 12:24:15;;;;;;;2.10;1.33;;;8.30;99.90;;;;;;4977514;28;20536;-95
2022/02/20 12:26:54;;;;;;;3.43;2.53;;;8.30;99.90;;;;;;5015826;28;20442;-91
2022/02/20 12:29:23;;;;;;;1.27;1.17;;;;;;;;;;5079163;28;20521;-92
2022/02/20 12:32:03;;;;;;;1.17;0.50;;;8.40;99.90;;;;;;5082379;28;20491;-94
2022/02/20 12:34:47;;;;;;;1.40;0.43;;;8.20;99.90;;;;;;5069513;28;20536;-93
2022/02/20 12:37:15;;;;;;;0.83;0.50;;;8.30;99.90;;;;;;5074977;28;20440;-90
2022/02/20 12:39:43;;;;;;;0.43;0.30;;;;;;;;;;5075573;28;20483;-89
2022/02/20 12:42:10;;;;;;;0.40;0.40;;;;;;;;;;5071383;28;20449;-89
2022/02/20 12:44:39;;;;;;;0.90;0.67;;;;;;;;;;5070862;28;20776;-93
2022/02/20 12:47:09;;;;;;;1.13;0.60;;;8.20;99.90;;;;;;5075688;28;20446;-92
2022/02/20 12:49:41;;;;;;;0.40;0.30;;;8.20;99.90;;;;;;5067969;28;20904;-92
2022/02/20 12:52:09;;;;;;;0.60;0.43;;;8.30;99.90;;;;;;5070793;28;20448;-91
2022/02/20 12:54:37;;;;;;;1.63;0.60;;;;;;;;;;5075154;28;20441;-87
2022/02/20 12:57:05;;;;;;;0.97;0.40;;;8.30;99.90;;;;;;5072976;28;20449;-93
2022/02/20 12:59:32;;;;;;;0.40;0.30;;;;;;;;;;5076736;28;20461;-89
2022/02/20 13:02:03;;;;;;;0.40;0.30;;;8.20;99.90;;;;;;5075919;28;20933;-92
2022/02/20 13:04:32;;;;;;;1.10;0.40;;;;;;;;;;5080284;28;20464;-93
2022/02/20 13:07:01;;;;;;;0.63;0.37;;;8.30;99.90;;;;;;5084469;28;20477;-94
2022/02/20 13:09:29;;;;;;;0.50;0.40;;;8.40;99.90;;;;;;5077675;28;20477;-91
2022/02/20 13:11:56;;;;;;;0.90;0.40;;;;;;;;;;5075755;28;20434;-91
2022/02/20 13:14:24;;;;;;;1.37;0.33;;;;;;;;;;5075825;28;20520;-95
2022/02/20 13:16:53;;;;;;;0.80;0.47;;;8.40;99.90;;;;;;5076153;28;20453;-94
2022/02/20 13:19:39;;;;;;;0.50;0.50;;;8.40;99.90;;;;;;5078853;28;20475;-95
2022/02/20 13:22:29;;;;;;;0.93;0.60;;;8.40;99.90;;;;;;5183240;22;20990;-95
2022/02/20 13:24:57;;;;;;;0.70;0.60;;;;;;;;;;5084388;28;20442;-95
2022/02/20 13:27:27;;;;;;;1.37;0.50;;;;;;;;;;5082690;28;20549;-96
2022/02/20 13:29:54;;;;;;;0.40;0.30;;;;;;;;;;5079255;28;20470;-94
2022/02/20 13:32:22;;;;;;;0.43;0.33;;;8.50;99.90;;;;;;5081508;28;20442;-93
2022/02/20 13:34:59;;;;;;;0.90;0.70;;;;;;;;;;5079273;28;20456;-95
2022/02/20 13:37:27;;;;;;;0.40;0.30;;;;;;;;;;5071707;28;20482;-93
2022/02/20 13:39:57;;;;;;;0.70;0.47;;;8.50;99.90;;;;;;5069091;28;20458;-94
2022/02/20 13:42:24;;;;;;;0.57;0.37;;;;;;;;;;5069537;28;20469;-93
2022/02/20 13:44:52;;;;;;;0.43;0.43;;;;;;;;;;5059238;28;20442;-95
2022/02/20 13:47:21;;;;;;;0.57;0.30;;;;;;;;;;5053928;28;20466;-96
2022/02/20 13:49:50;;;;;;;0.40;0.27;;;8.50;99.90;;;;;;5068726;28;20478;-94
2022/02/20 13:52:28;;;;;;;0.40;0.30;;;8.50;99.90;;;;;;5072820;28;20522;-94
2022/02/20 13:54:58;;;;;;;0.40;0.30;;;;;;;;;;5085053;28;20480;-95
2022/02/20 13:57:26;;;;;;;0.50;0.20;;;;;;;;;;5082927;28;20434;-92
2022/02/20 14:00:37;;;;;;;1.27;0.40;;;8.50;99.90;;;;;;5079867;28;20542;-94
2022/02/20 14:03:04;;;;;;;1.30;0.37;;;;;;;;;;5085713;28;20452;-93
2022/02/20 14:05:31;;;;;;;0.40;0.40;;;;;;;;;;5081606;28;20458;-93
2022/02/20 14:08:07;;;;;;;0.70;0.40;;;8.60;99.90;;;;;;5085268;22;20490;-95
2022/02/20 14:10:34;;;;;;;0.90;0.30;;;;;;;;;;5078275;28;20515;-95
2022/02/20 14:13:01;;;;;;;0.80;0.50;;;;;;;;;;5078250;28;20901;-96
2022/02/20 14:15:29;;;;;;;0.67;0.40;;;8.50;99.90;;;;;;5080454;28;20442;-96
2022/02/20 14:18:05;;;;;;;1.37;1.13;;;8.40;99.90;;;;;;5081061;28;20454;-93
2022/02/20 14:20:34;;;;;;;0.80;0.40;;;8.40;99.90;;;;;;5084587;28;20433;-94
2022/02/20 14:23:09;;;;;;;1.37;0.50;;;8.40;99.90;;;;;;5080480;28;20450;-94